createdAt,value
2022-11-09T00:01:06.126Z,11.23
2022-11-09T00:03:34.732Z,11.20
2022-11-09T00:06:03.288Z,11.18
2022-11-09T00:08:31.951Z,11.16
2022-11-09T00:11:05.272Z,11.15
2022-11-09T00:13:36.986Z,11.15
2022-11-09T00:16:07.940Z,11.17
2022-11-09T00:18:37.418Z,11.15
2022-11-09T00:21:08.087Z,11.12
2022-11-09T00:23:37.161Z,11.11
2022-11-09T00:26:07.419Z,11.10
2022-11-09T00:28:36.503Z,11.19
2022-11-09T00:31:08.998Z,11.19
2022-11-09T00:33:37.983Z,11.20
2022-11-09T00:36:08.486Z,11.19
2022-11-09T00:38:38.388Z,11.17
2022-11-09T00:41:08.090Z,11.17
2022-11-09T00:43:37.169Z,11.15
2022-11-09T00:46:07.519Z,11.12
2022-11-09T00:48:36.514Z,11.10
2022-11-09T00:51:05.988Z,11.07
2022-11-09T00:53:34.816Z,10.99
2022-11-09T00:56:04.952Z,10.91
2022-11-09T00:58:38.283Z,10.83
2022-11-09T01:01:11.979Z,10.78
2022-11-09T01:03:43.806Z,10.71
2022-11-09T01:06:16.915Z,10.68
2022-11-09T01:08:46.373Z,10.65
2022-11-09T01:11:17.481Z,10.64
2022-11-09T01:13:46.830Z,10.61
2022-11-09T01:16:19.182Z,10.56
2022-11-09T01:18:48.674Z,10.50
2022-11-09T01:21:18.221Z,10.44
2022-11-09T01:23:46.931Z,10.40
2022-11-09T01:26:17.081Z,10.38
2022-11-09T01:28:46.148Z,10.36
2022-11-09T01:31:18.388Z,10.35
2022-11-09T01:33:47.129Z,10.33
2022-11-09T01:36:17.668Z,10.36
2022-11-09T01:38:46.988Z,10.37
2022-11-09T01:41:19.572Z,10.21
2022-11-09T01:44:07.875Z,10.41
2022-11-09T01:46:48.537Z,10.41
2022-11-09T01:49:25.023Z,10.36
2022-11-09T01:52:00.332Z,10.31
2022-11-09T01:54:36.722Z,10.28
2022-11-09T01:57:11.978Z,10.25
2022-11-09T01:59:46.562Z,10.20
2022-11-09T02:02:17.032Z,10.14
2022-11-09T02:04:52.442Z,10.11
2022-11-09T02:07:23.582Z,10.09
2022-11-09T02:10:01.943Z,10.08
2022-11-09T02:12:34.064Z,10.05
2022-11-09T02:15:06.767Z,10.02
2022-11-09T02:17:37.441Z,9.97
2022-11-09T02:20:12.216Z,9.94
2022-11-09T02:22:41.621Z,9.88
2022-11-09T02:25:11.897Z,9.87
2022-11-09T02:27:42.620Z,9.89
2022-11-09T02:30:13.178Z,9.90
2022-11-09T02:32:42.020Z,9.91
2022-11-09T02:35:13.570Z,9.91
2022-11-09T02:37:48.845Z,9.89
2022-11-09T02:40:23.502Z,9.87
2022-11-09T02:42:52.372Z,9.83
2022-11-09T02:45:21.067Z,9.80
2022-11-09T02:47:49.911Z,9.87
2022-11-09T02:50:20.218Z,9.92
2022-11-09T02:52:48.853Z,9.89
2022-11-09T02:55:17.591Z,9.85
2022-11-09T02:57:46.588Z,9.88
2022-11-09T03:00:17.982Z,9.94
2022-11-09T03:02:46.872Z,9.99
2022-11-09T03:05:17.328Z,10.05
2022-11-09T03:07:48.661Z,10.14
2022-11-09T03:10:18.189Z,10.23
2022-11-09T03:12:48.451Z,10.14
2022-11-09T03:15:17.843Z,10.03
2022-11-09T03:17:47.957Z,9.93
2022-11-09T03:20:17.489Z,9.83
2022-11-09T03:22:47.606Z,9.77
2022-11-09T03:25:16.614Z,9.79
2022-11-09T03:27:45.200Z,9.83
2022-11-09T03:30:15.184Z,9.93
2022-11-09T03:32:49.446Z,10.08
2022-11-09T03:35:19.450Z,10.26
2022-11-09T03:37:49.800Z,10.41
2022-11-09T03:40:19.002Z,10.52
2022-11-09T03:42:50.532Z,10.48
2022-11-09T03:45:19.339Z,10.67
2022-11-09T03:47:49.091Z,10.69
2022-11-09T03:50:19.063Z,10.67
2022-11-09T03:52:49.494Z,10.69
2022-11-09T03:55:18.195Z,10.72
2022-11-09T03:57:47.501Z,10.73
2022-11-09T04:00:18.902Z,10.72
2022-11-09T04:02:50.823Z,10.72
2022-11-09T04:05:20.456Z,10.71
2022-11-09T04:07:51.550Z,10.61
2022-11-09T04:10:21.273Z,10.48
2022-11-09T04:12:53.181Z,10.35
2022-11-09T04:15:22.469Z,10.27
2022-11-09T04:17:59.877Z,10.22
2022-11-09T04:20:29.797Z,10.16
2022-11-09T04:23:01.315Z,10.12
2022-11-09T04:25:33.627Z,10.06
2022-11-09T04:28:03.723Z,10.06
2022-11-09T04:30:34.843Z,10.08
2022-11-09T04:33:04.652Z,10.09
2022-11-09T04:35:35.571Z,10.16
2022-11-09T04:38:07.785Z,10.28
2022-11-09T04:40:37.508Z,10.37
2022-11-09T04:43:08.387Z,10.46
2022-11-09T04:45:37.357Z,10.56
2022-11-09T04:48:07.863Z,10.69
2022-11-09T04:50:37.172Z,10.76
2022-11-09T04:53:09.027Z,10.85
2022-11-09T04:55:37.755Z,10.89
2022-11-09T04:58:06.590Z,10.96
2022-11-09T05:00:35.947Z,11.04
2022-11-09T05:03:05.669Z,11.10
2022-11-09T05:05:35.130Z,11.16
2022-11-09T05:08:04.588Z,11.22
2022-11-09T05:10:35.388Z,11.27
2022-11-09T05:13:06.419Z,11.30
2022-11-09T05:15:36.750Z,11.34
2022-11-09T05:18:06.170Z,11.37
2022-11-09T05:20:35.334Z,11.38
2022-11-09T05:23:22.848Z,11.42
2022-11-09T05:25:53.281Z,11.44
2022-11-09T05:28:21.939Z,11.46
2022-11-09T05:30:50.595Z,11.48
2022-11-09T05:33:19.611Z,11.52
2022-11-09T05:35:48.514Z,11.52
2022-11-09T05:38:17.161Z,11.51
2022-11-09T05:40:45.741Z,11.47
2022-11-09T05:43:15.741Z,11.47
2022-11-09T05:45:45.074Z,11.47
2022-11-09T05:48:15.632Z,11.46
2022-11-09T05:50:44.680Z,11.45
2022-11-09T05:53:25.600Z,11.46
2022-11-09T05:55:54.251Z,11.47
2022-11-09T05:58:24.249Z,11.50
2022-11-09T06:00:53.076Z,11.50
2022-11-09T06:03:21.904Z,11.51
2022-11-09T06:05:51.019Z,11.51
2022-11-09T06:08:19.822Z,11.52
2022-11-09T06:10:49.136Z,11.51
2022-11-09T06:13:18.392Z,11.51
2022-11-09T06:15:55.039Z,11.52
2022-11-09T06:18:24.530Z,11.53
2022-11-09T06:20:54.296Z,11.57
2022-11-09T06:23:25.754Z,11.59
2022-11-09T06:25:54.792Z,11.62
2022-11-09T06:28:23.378Z,11.64
2022-11-09T06:30:53.615Z,11.67
2022-11-09T06:33:22.526Z,11.70
2022-11-09T06:35:56.067Z,11.74
2022-11-09T06:38:26.433Z,11.74
2022-11-09T06:40:56.457Z,11.74
2022-11-09T06:43:25.562Z,11.77
2022-11-09T06:45:56.313Z,11.84
2022-11-09T06:48:25.095Z,11.92
2022-11-09T06:50:53.668Z,11.93
2022-11-09T06:53:22.674Z,11.94
2022-11-09T06:55:51.457Z,11.94
2022-11-09T06:58:20.832Z,11.94
2022-11-09T07:00:49.483Z,11.96
2022-11-09T07:03:21.570Z,11.97
2022-11-09T07:05:52.172Z,11.96
2022-11-09T07:08:21.300Z,11.99
2022-11-09T07:10:49.895Z,12.06
2022-11-09T07:13:18.739Z,12.13
2022-11-09T07:15:53.746Z,12.19
2022-11-09T07:18:23.932Z,12.26
2022-11-09T07:20:52.714Z,11.95
2022-11-09T07:23:21.954Z,12.33
2022-11-09T07:25:50.814Z,12.40
2022-11-09T07:28:19.588Z,12.50
2022-11-09T07:30:51.829Z,12.58
2022-11-09T07:33:22.761Z,12.60
2022-11-09T07:35:52.077Z,12.59
2022-11-09T07:38:20.731Z,12.61
2022-11-09T07:40:49.411Z,12.66
2022-11-09T07:43:18.687Z,12.72
2022-11-09T07:45:51.756Z,12.81
2022-11-09T07:48:21.781Z,12.88
2022-11-09T07:50:50.589Z,12.93
2022-11-09T07:53:19.555Z,12.88
2022-11-09T07:55:48.350Z,12.87
2022-11-09T07:58:17.539Z,12.90
2022-11-09T08:00:46.140Z,12.97
2022-11-09T08:03:14.760Z,13.01
2022-11-09T08:05:44.772Z,13.02
2022-11-09T08:08:15.625Z,13.08
2022-11-09T08:10:51.337Z,13.15
2022-11-09T08:13:20.931Z,13.28
2022-11-09T08:15:49.889Z,13.48
2022-11-09T08:18:21.852Z,13.62
2022-11-09T08:20:52.265Z,13.67
2022-11-09T08:23:22.084Z,13.62
2022-11-09T08:25:50.957Z,13.51
2022-11-09T08:28:19.945Z,13.40
2022-11-09T08:30:57.472Z,13.28
2022-11-09T08:33:27.575Z,13.20
2022-11-09T08:35:58.016Z,13.15
2022-11-09T08:38:26.650Z,13.21
2022-11-09T08:40:59.056Z,13.32
2022-11-09T08:43:27.927Z,13.34
2022-11-09T08:45:56.529Z,13.59
2022-11-09T08:48:25.271Z,13.63
2022-11-09T08:50:57.121Z,13.67
2022-11-09T08:53:28.573Z,13.62
2022-11-09T08:55:57.747Z,13.57
2022-11-09T08:58:26.401Z,13.53
2022-11-09T09:00:55.071Z,13.50
2022-11-09T09:03:23.657Z,13.40
2022-11-09T09:05:52.480Z,13.33
2022-11-09T09:08:23.588Z,13.30
2022-11-09T09:10:52.454Z,13.33
2022-11-09T09:13:22.644Z,13.34
2022-11-09T09:15:51.574Z,13.40
2022-11-09T09:18:20.433Z,13.40
2022-11-09T09:20:49.284Z,13.47
2022-11-09T09:23:18.320Z,13.61
2022-11-09T09:25:48.466Z,13.68
2022-11-09T09:28:17.292Z,13.72
2022-11-09T09:30:46.260Z,13.77
2022-11-09T09:33:14.897Z,13.80
2022-11-09T09:35:43.471Z,13.79
2022-11-09T09:38:12.106Z,13.81
2022-11-09T09:40:50.172Z,13.75
2022-11-09T09:43:29.239Z,13.61
2022-11-09T09:45:59.380Z,13.54
2022-11-09T09:48:37.193Z,13.47
2022-11-09T09:51:12.558Z,13.44
2022-11-09T09:53:46.203Z,13.44
2022-11-09T09:56:22.629Z,13.40
2022-11-09T09:58:59.832Z,13.36
2022-11-09T10:01:38.755Z,13.32
2022-11-09T10:04:18.345Z,13.28
2022-11-09T10:07:01.254Z,13.27
2022-11-09T10:09:54.620Z,13.24
2022-11-09T10:12:33.137Z,13.20
2022-11-09T10:15:16.568Z,13.11
2022-11-09T10:18:16.887Z,13.02
2022-11-09T10:21:17.196Z,12.98
2022-11-09T10:23:58.491Z,12.89
2022-11-09T10:26:34.317Z,12.48
2022-11-09T10:29:16.839Z,12.83
2022-11-09T10:31:48.340Z,12.95
2022-11-09T10:34:20.865Z,13.02
2022-11-09T10:37:02.757Z,13.09
2022-11-09T10:39:41.483Z,13.05
2022-11-09T10:42:28.814Z,13.05
2022-11-09T10:45:29.740Z,13.07
2022-11-09T10:48:33.201Z,13.23
2022-11-09T10:51:40.677Z,13.47
2022-11-09T10:54:31.219Z,13.70
2022-11-09T10:57:21.147Z,13.79
2022-11-09T11:00:17.451Z,13.96
2022-11-09T11:03:16.891Z,14.07
2022-11-09T11:06:07.589Z,14.04
2022-11-09T11:09:16.154Z,14.01
2022-11-09T11:12:15.332Z,13.98
2022-11-09T11:15:02.636Z,14.04
2022-11-09T11:17:49.780Z,14.13
2022-11-09T11:20:38.912Z,14.23
2022-11-09T11:23:28.105Z,14.20
2022-11-09T11:26:33.015Z,14.16
2022-11-09T11:29:41.988Z,14.11
2022-11-09T11:32:29.414Z,14.17
2022-11-09T11:35:18.285Z,14.28
2022-11-09T11:38:23.878Z,14.42
2022-11-09T11:41:35.115Z,14.55
2022-11-09T11:44:42.573Z,14.67
2022-11-09T11:47:38.490Z,14.69
2022-11-09T11:50:43.791Z,14.72
2022-11-09T11:53:48.708Z,14.64
2022-11-09T11:56:44.484Z,14.67
2022-11-09T11:59:52.096Z,14.64
2022-11-09T12:03:07.337Z,14.47
2022-11-09T12:06:16.722Z,14.12
2022-11-09T12:09:25.293Z,13.71
2022-11-09T12:12:20.083Z,13.43
2022-11-09T12:15:24.522Z,13.29
2022-11-09T12:18:25.211Z,13.22
2022-11-09T12:21:17.644Z,12.94
2022-11-09T12:24:16.837Z,13.38
2022-11-09T12:27:36.586Z,13.52
2022-11-09T12:30:26.510Z,13.58
2022-11-09T12:33:18.706Z,13.63
2022-11-09T12:36:13.649Z,13.66
2022-11-09T12:39:07.129Z,13.67
2022-11-09T12:41:59.823Z,13.70
2022-11-09T12:44:59.826Z,13.76
2022-11-09T12:47:47.220Z,13.81
2022-11-09T12:50:35.788Z,13.88
2022-11-09T12:53:26.524Z,13.98
2022-11-09T12:56:23.700Z,14.10
2022-11-09T12:59:35.494Z,14.19
2022-11-09T13:02:32.255Z,14.27
2022-11-09T13:05:31.997Z,14.42
2022-11-09T13:08:22.321Z,14.26
2022-11-09T13:11:12.534Z,14.70
2022-11-09T13:14:33.334Z,14.74
2022-11-09T13:17:57.615Z,14.67
2022-11-09T13:20:55.259Z,14.55
2022-11-09T13:24:02.236Z,14.44
2022-11-09T13:26:57.833Z,14.34
2022-11-09T13:29:56.455Z,14.25
2022-11-09T13:33:22.719Z,14.19
2022-11-09T13:36:20.957Z,14.17
2022-11-09T13:39:30.757Z,14.10
2022-11-09T13:42:29.264Z,14.01
2022-11-09T13:45:28.041Z,13.96
2022-11-09T13:48:39.782Z,13.98
2022-11-09T13:51:44.655Z,14.02
2022-11-09T13:54:33.776Z,14.04
2022-11-09T13:57:22.042Z,14.01
2022-11-09T14:00:18.851Z,13.97
2022-11-09T14:03:17.744Z,13.91
2022-11-09T14:06:06.029Z,13.87
2022-11-09T14:08:54.740Z,13.79
2022-11-09T14:12:15.525Z,13.64
2022-11-09T14:15:20.880Z,13.55
2022-11-09T14:18:20.506Z,13.52
2022-11-09T14:21:28.618Z,13.47
2022-11-09T14:24:23.211Z,13.36
2022-11-09T14:27:19.745Z,13.19
2022-11-09T14:30:19.047Z,13.03
2022-11-09T14:33:24.635Z,12.89
2022-11-09T14:36:14.232Z,12.77
2022-11-09T14:39:04.904Z,12.65
2022-11-09T14:41:54.060Z,12.53
2022-11-09T14:44:46.960Z,12.38
2022-11-09T14:47:37.815Z,12.26
2022-11-09T14:50:27.158Z,12.17
2022-11-09T14:53:19.035Z,12.06
2022-11-09T14:56:08.122Z,11.96
2022-11-09T14:58:58.285Z,11.86
2022-11-09T15:01:59.593Z,11.74
2022-11-09T15:04:57.907Z,11.67
2022-11-09T15:07:48.341Z,11.59
2022-11-09T15:10:36.487Z,11.49
2022-11-09T15:13:32.916Z,11.35
2022-11-09T15:16:25.629Z,11.24
2022-11-09T15:19:23.992Z,11.14
2022-11-09T15:22:50.417Z,11.04
2022-11-09T15:25:55.316Z,10.94
2022-11-09T15:28:47.219Z,10.91
2022-11-09T15:31:35.604Z,10.85
2022-11-09T15:34:25.439Z,10.81
2022-11-09T15:37:48.431Z,10.75
2022-11-09T15:40:36.006Z,10.67
2022-11-09T15:43:23.481Z,10.65
2022-11-09T15:46:14.480Z,10.59
2022-11-09T15:49:14.984Z,10.53
2022-11-09T15:52:02.264Z,10.44
2022-11-09T15:54:49.272Z,10.38
2022-11-09T15:57:36.228Z,10.34
2022-11-09T16:00:24.281Z,10.29
2022-11-09T16:03:11.933Z,10.25
2022-11-09T16:06:00.253Z,10.20
2022-11-09T16:08:49.205Z,10.13
2022-11-09T16:11:37.030Z,10.07
2022-11-09T16:14:24.620Z,10.02
2022-11-09T16:17:11.568Z,9.99
2022-11-09T16:19:58.609Z,9.96
2022-11-09T16:22:47.700Z,9.89
2022-11-09T16:25:35.150Z,9.88
2022-11-09T16:28:23.968Z,9.84
2022-11-09T16:31:13.086Z,9.80
2022-11-09T16:34:00.528Z,9.80
2022-11-09T16:36:52.464Z,9.79
2022-11-09T16:39:45.157Z,9.78
2022-11-09T16:42:34.944Z,9.79
2022-11-09T16:45:22.487Z,9.77
2022-11-09T16:48:14.252Z,9.82
2022-11-09T16:51:01.476Z,9.79
2022-11-09T16:53:48.793Z,9.76
2022-11-09T16:56:37.312Z,9.74
2022-11-09T16:59:26.621Z,9.72
2022-11-09T17:02:13.876Z,9.69
2022-11-09T17:05:01.076Z,9.68
2022-11-09T17:07:49.268Z,9.65
2022-11-09T17:10:40.813Z,9.66
2022-11-09T17:13:29.366Z,9.73
2022-11-09T17:16:20.386Z,9.76
2022-11-09T17:19:07.629Z,9.80
2022-11-09T17:21:54.884Z,9.81
2022-11-09T17:24:42.541Z,9.81
2022-11-09T17:27:29.991Z,9.83
2022-11-09T17:30:18.568Z,9.88
2022-11-09T17:33:06.001Z,9.90
2022-11-09T17:36:00.354Z,9.94
2022-11-09T17:38:47.462Z,9.92
2022-11-09T17:41:38.681Z,9.94
2022-11-09T17:44:28.978Z,9.93
2022-11-09T17:47:17.593Z,9.92
2022-11-09T17:50:05.269Z,9.90
2022-11-09T17:52:52.344Z,9.92
2022-11-09T17:55:39.559Z,9.92
2022-11-09T17:58:26.918Z,9.91
2022-11-09T18:01:16.850Z,9.89
2022-11-09T18:04:06.947Z,9.87
2022-11-09T18:06:54.396Z,9.90
2022-11-09T18:09:42.498Z,9.93
2022-11-09T18:12:29.725Z,9.93
2022-11-09T18:15:17.157Z,9.94
2022-11-09T18:18:04.804Z,9.95
2022-11-09T18:20:53.552Z,9.98
2022-11-09T18:23:40.464Z,10.02
2022-11-09T18:26:27.861Z,9.99
2022-11-09T18:29:15.183Z,9.97
2022-11-09T18:32:02.589Z,9.97
2022-11-09T18:34:50.106Z,9.99
2022-11-09T18:37:39.034Z,10.02
2022-11-09T18:40:26.042Z,10.03
2022-11-09T18:43:12.920Z,10.02
2022-11-09T18:46:01.787Z,10.00
2022-11-09T18:48:52.619Z,10.00
2022-11-09T18:51:40.024Z,9.96
2022-11-09T18:54:28.732Z,9.92
2022-11-09T18:57:19.854Z,9.91
2022-11-09T19:00:08.508Z,9.95
2022-11-09T19:02:55.665Z,10.01
2022-11-09T19:05:43.886Z,10.07
2022-11-09T19:08:48.311Z,10.12
2022-11-09T19:11:37.190Z,10.22
2022-11-09T19:14:27.811Z,10.28
2022-11-09T19:17:16.649Z,10.34
2022-11-09T19:20:04.432Z,10.39
2022-11-09T19:22:51.623Z,10.44
2022-11-09T19:25:38.622Z,10.45
2022-11-09T19:28:27.322Z,10.45
2022-11-09T19:31:15.739Z,10.46
2022-11-09T19:34:03.018Z,10.44
2022-11-09T19:36:50.480Z,10.45
2022-11-09T19:39:42.858Z,10.43
2022-11-09T19:42:30.697Z,10.45
2022-11-09T19:45:19.291Z,10.52
2022-11-09T19:48:06.683Z,9.83
2022-11-09T19:50:54.870Z,10.64
2022-11-09T19:53:42.718Z,10.71
2022-11-09T19:56:31.989Z,10.80
2022-11-09T19:59:20.845Z,10.83
2022-11-09T20:02:10.664Z,10.88
2022-11-09T20:04:57.226Z,10.75
2022-11-09T20:07:44.521Z,10.87
2022-11-09T20:10:31.580Z,10.87
2022-11-09T20:13:20.690Z,10.88
2022-11-09T20:16:10.487Z,10.89
2022-11-09T20:18:59.870Z,10.94
2022-11-09T20:21:47.086Z,10.98
2022-11-09T20:24:33.847Z,11.04
2022-11-09T20:27:20.750Z,11.09
2022-11-09T20:30:08.738Z,11.11
2022-11-09T20:32:56.116Z,11.14
2022-11-09T20:35:52.116Z,11.17
2022-11-09T20:38:39.877Z,11.18
2022-11-09T20:41:27.525Z,11.18
2022-11-09T20:44:14.922Z,11.20
2022-11-09T20:47:05.020Z,11.22
2022-11-09T20:49:53.018Z,11.25
2022-11-09T20:52:41.311Z,11.25
2022-11-09T20:55:28.456Z,11.26
2022-11-09T20:58:16.057Z,11.27
2022-11-09T21:01:04.931Z,11.29
2022-11-09T21:03:52.961Z,11.29
2022-11-09T21:06:40.154Z,11.32
2022-11-09T21:09:29.147Z,11.33
2022-11-09T21:12:22.156Z,11.33
2022-11-09T21:15:10.825Z,11.32
2022-11-09T21:17:58.240Z,11.33
2022-11-09T21:20:45.663Z,11.33
2022-11-09T21:23:50.490Z,11.33
2022-11-09T21:26:57.035Z,11.33
2022-11-09T21:29:53.348Z,11.36
2022-11-09T21:32:41.768Z,11.37
2022-11-09T21:35:29.084Z,11.38
2022-11-09T21:38:16.293Z,11.40
2022-11-09T21:41:24.505Z,11.42
2022-11-09T21:44:14.445Z,11.41
2022-11-09T21:47:02.318Z,11.41
2022-11-09T21:49:49.495Z,11.38
2022-11-09T21:52:36.453Z,11.37
2022-11-09T21:55:23.708Z,11.38
2022-11-09T21:58:11.068Z,11.41
2022-11-09T22:01:03.380Z,11.43
2022-11-09T22:03:51.521Z,11.47
2022-11-09T22:06:40.455Z,11.46
2022-11-09T22:09:35.709Z,11.48
2022-11-09T22:12:45.138Z,11.50
2022-11-09T22:16:04.290Z,11.52
2022-11-09T22:19:11.151Z,11.52
2022-11-09T22:21:58.468Z,11.53
2022-11-09T22:24:45.644Z,11.56
2022-11-09T22:27:33.691Z,11.55
2022-11-09T22:30:21.060Z,11.53
2022-11-09T22:33:08.198Z,11.54
2022-11-09T22:35:57.308Z,11.54
2022-11-09T22:38:44.522Z,11.54
2022-11-09T22:41:31.476Z,11.52
2022-11-09T22:44:18.649Z,11.48
2022-11-09T22:47:05.835Z,11.46
2022-11-09T22:49:52.938Z,11.44
2022-11-09T22:52:41.483Z,11.42
2022-11-09T22:55:29.618Z,11.38
2022-11-09T22:58:16.892Z,11.37
2022-11-09T23:01:09.590Z,11.37
2022-11-09T23:03:56.695Z,11.39
2022-11-09T23:06:43.759Z,11.42
2022-11-09T23:09:32.256Z,11.44
2022-11-09T23:12:19.450Z,11.44
2022-11-09T23:15:12.408Z,11.42
2022-11-09T23:18:17.924Z,11.41
2022-11-09T23:21:05.315Z,11.41
2022-11-09T23:23:53.685Z,11.40
2022-11-09T23:26:42.526Z,11.40
2022-11-09T23:29:30.647Z,11.39
2022-11-09T23:32:18.292Z,11.37
2022-11-09T23:35:06.411Z,11.34
2022-11-09T23:37:59.815Z,11.35
2022-11-09T23:40:48.058Z,11.33
2022-11-09T23:43:37.494Z,11.35
2022-11-09T23:46:25.381Z,11.38
2022-11-09T23:49:12.776Z,11.40
2022-11-09T23:52:00.661Z,11.44
2022-11-09T23:54:48.060Z,11.45
2022-11-09T23:57:35.944Z,11.47
